Pirassununga, Brazil
Current Conditions -  °F | °C
As of 4:00 PM on Thursday 27 Nov 2014 (Local Time) from SBYS Reporting Station
Broken Clouds Broken Clouds  
Wind Chill: 82°   Ceiling: 7000
Heat Index: 87°   Visibility: 6mi
Dew Point: 72°   Wind: 3mph
Humidity: 70%   Direction: 270°W
Pressure: 29.88"   Gusts: NA
Location:  21.99°S, 47.43°W
Report Text: SBYS 271800Z 27003KT 9999 SCT030 BKN070 28/22 Q1012
Loading
Personal Weather Stations






























Interactive Weather Map New forecast layout! Learn more

10-Day Weather Forecast

Advertisements
Track Severe Weather on mobile